Terminal Aerodrome Forecast
Issued by NWS

Home | Current Version | Previous Version | Text Only | Print | Product List | Glossary On
Versions: 1 2 3 4 5 6 7 8 9 10 11 12 13 14
000
FTAK31 PAJN 242300
TAFAKT
TAF
PAKT 242338Z 2500/2524 33009KT P6SM SCT070 SCT120
     FM250900 33007KT P6SM FEW080 SCT120
     FM251800 14009KT P6SM SCT050 BKN100
      AMD LTD TO CLD VIS AND WIND 2506/2515=

USA.gov is the U.S. government's official web portal to all federal, state and local government web resources and services.